Time;durP1;ratioP1;P1;durP2;ratioP2;P2;SDS_P1;SDS_P2;PMS_P1;PMS_P2;Temp;Humidity;BMP_temperature;BMP_pressure;BME280_temperature;BME280_humidity;BME280_pressure;Samples;Min_cycle;Max_cycle;Signal;HPM_P1;HPM_P2
2023/08/10 00:00:15;;;;;;;5.67;2.00;;;15.90;99.90;;;;;;5074058;28;20041;-70
2023/08/10 00:02:42;;;;;;;4.97;2.13;;;15.80;99.90;;;;;;5074008;28;20084;-70
2023/08/10 00:05:09;;;;;;;5.20;1.70;;;15.80;99.90;;;;;;5075324;28;20044;-70
2023/08/10 00:07:36;;;;;;;6.00;2.03;;;15.80;99.90;;;;;;5074983;28;20048;-70
2023/08/10 00:10:03;;;;;;;6.53;2.00;;;15.80;99.90;;;;;;5075029;28;20037;-70
2023/08/10 00:12:29;;;;;;;13.90;2.53;;;15.80;99.90;;;;;;5074962;28;20082;-70
2023/08/10 00:14:55;;;;;;;5.60;1.80;;;15.80;99.90;;;;;;5075094;28;20364;-70
2023/08/10 00:17:21;;;;;;;5.97;1.77;;;15.80;99.90;;;;;;5073777;28;20045;-72
2023/08/10 00:19:46;;;;;;;8.27;2.07;;;15.80;99.90;;;;;;5074327;28;20045;-70
2023/08/10 00:22:13;;;;;;;7.50;2.77;;;15.80;99.90;;;;;;5074965;28;20376;-71
2023/08/10 00:24:39;;;;;;;4.97;1.80;;;15.70;99.90;;;;;;5074649;28;20052;-71
2023/08/10 00:27:06;;;;;;;6.03;2.27;;;15.70;99.90;;;;;;5074776;28;20380;-70
2023/08/10 00:29:32;;;;;;;6.03;1.87;;;15.60;99.90;;;;;;5074647;28;20182;-70
2023/08/10 00:31:57;;;;;;;5.10;1.87;;;15.60;99.90;;;;;;5074584;28;20051;-70
2023/08/10 00:34:23;;;;;;;7.27;2.30;;;15.50;99.90;;;;;;5074465;28;20040;-71
2023/08/10 00:36:49;;;;;;;5.97;1.80;;;15.40;99.90;;;;;;5074616;28;20040;-70
2023/08/10 00:39:15;;;;;;;6.30;2.00;;;15.40;99.90;;;;;;5074587;28;20037;-70
2023/08/10 00:41:41;;;;;;;8.77;2.20;;;15.40;99.90;;;;;;5074366;28;20041;-70
2023/08/10 00:44:07;;;;;;;4.50;1.60;;;15.30;99.90;;;;;;5073514;28;20056;-70
2023/08/10 00:46:32;;;;;;;7.57;1.80;;;15.30;99.90;;;;;;5074232;28;20067;-70
2023/08/10 00:48:59;;;;;;;6.40;1.83;;;15.30;99.90;;;;;;5074324;28;20338;-70
2023/08/10 00:51:24;;;;;;;8.97;1.60;;;15.30;99.90;;;;;;5074016;28;20481;-72
2023/08/10 00:53:51;;;;;;;4.77;1.70;;;15.20;99.90;;;;;;5074020;28;20083;-70
2023/08/10 00:56:17;;;;;;;10.17;2.10;;;15.20;99.90;;;;;;5074232;28;20075;-70
2023/08/10 00:58:44;;;;;;;5.53;1.90;;;15.20;99.90;;;;;;5074053;28;20099;-70
2023/08/10 01:01:10;;;;;;;5.37;1.47;;;15.10;99.90;;;;;;5074083;28;20048;-70
2023/08/10 01:03:36;;;;;;;6.67;2.00;;;15.10;99.90;;;;;;5073845;28;20040;-70
2023/08/10 01:06:24;;;;;;;8.53;2.00;;;15.10;99.90;;;;;;5039760;28;20043;-70
2023/08/10 01:09:16;;;;;;;5.10;1.83;;;14.90;99.90;;;;;;5073376;28;20476;-70
2023/08/10 01:11:58;;;;;;;7.33;2.23;;;14.90;99.90;;;;;;5073814;28;20132;-71
2023/08/10 01:14:53;;;;;;;7.57;2.17;;;14.90;99.90;;;;;;5073599;28;20044;-70
2023/08/10 01:17:26;;;;;;;5.83;1.60;;;14.80;99.90;;;;;;5058425;28;20045;-70
2023/08/10 01:19:53;;;;;;;5.33;1.70;;;14.70;99.90;;;;;;5073552;28;20278;-70
2023/08/10 01:22:33;;;;;;;7.80;2.10;;;14.70;99.90;;;;;;5072809;28;20279;-71
2023/08/10 01:25:06;;;;;;;8.47;2.50;;;14.70;99.90;;;;;;5072751;28;20037;-71
2023/08/10 01:27:34;;;;;;;7.57;2.10;;;14.60;99.90;;;;;;5072116;28;20286;-71
2023/08/10 01:30:01;;;;;;;7.20;1.70;;;14.60;99.90;;;;;;5072357;28;20044;-70
2023/08/10 01:32:30;;;;;;;5.87;1.70;;;14.50;99.90;;;;;;5073556;28;20330;-70
2023/08/10 01:34:56;;;;;;;5.63;1.60;;;14.50;99.90;;;;;;5072271;28;20274;-71
2023/08/10 01:37:23;;;;;;;5.73;1.73;;;14.50;99.90;;;;;;5073440;28;20275;-70
2023/08/10 01:39:50;;;;;;;6.30;1.90;;;14.50;99.90;;;;;;5073255;28;20270;-71
2023/08/10 01:42:16;;;;;;;7.00;2.27;;;14.50;99.90;;;;;;5073724;28;20075;-70
2023/08/10 01:44:42;;;;;;;5.00;2.00;;;14.40;99.90;;;;;;5073299;28;20279;-71
2023/08/10 01:47:24;;;;;;;5.90;1.80;;;14.50;99.90;;;;;;5073665;28;20282;-71
2023/08/10 01:49:55;;;;;;;8.63;2.33;;;14.50;99.90;;;;;;5072042;28;20052;-71
2023/08/10 01:52:26;;;;;;;4.33;1.80;;;14.50;99.90;;;;;;5073550;28;20279;-70
2023/08/10 01:54:52;;;;;;;8.30;2.83;;;14.40;99.90;;;;;;5073120;28;20615;-71
2023/08/10 01:57:19;;;;;;;6.43;2.20;;;14.30;99.90;;;;;;5073226;28;20282;-70
2023/08/10 01:59:44;;;;;;;7.63;2.13;;;14.30;99.90;;;;;;5072958;28;20270;-71
2023/08/10 02:02:11;;;;;;;13.27;2.40;;;14.30;99.90;;;;;;5071903;28;20291;-70
2023/08/10 02:04:37;;;;;;;4.60;2.23;;;14.30;99.90;;;;;;5071894;28;20044;-71
2023/08/10 02:07:03;;;;;;;7.93;2.30;;;14.30;99.90;;;;;;5073086;28;20610;-71
2023/08/10 02:09:29;;;;;;;10.10;2.93;;;14.30;99.90;;;;;;5073020;28;20037;-70
2023/08/10 02:11:55;;;;;;;6.57;2.17;;;14.30;99.90;;;;;;5072890;28;20344;-71
2023/08/10 02:14:21;;;;;;;4.40;2.07;;;14.30;99.90;;;;;;5073074;28;20044;-70
2023/08/10 02:16:47;;;;;;;3.60;1.97;;;14.30;99.90;;;;;;5072820;28;20765;-70
2023/08/10 02:19:12;;;;;;;6.37;2.20;;;14.30;99.90;;;;;;5088585;28;20071;-70
2023/08/10 02:21:38;;;;;;;4.27;2.10;;;14.40;99.90;;;;;;5071256;28;20314;-71
2023/08/10 02:24:04;;;;;;;12.37;3.00;;;14.40;99.90;;;;;;5071803;28;20086;-71
2023/08/10 02:26:30;;;;;;;4.80;2.10;;;14.40;99.90;;;;;;5076024;28;20469;-70
2023/08/10 02:28:56;;;;;;;6.00;2.50;;;14.40;99.90;;;;;;5076773;28;20447;-71
2023/08/10 02:31:23;;;;;;;8.43;2.50;;;14.40;99.90;;;;;;5076906;28;20279;-70
2023/08/10 02:33:49;;;;;;;5.93;2.40;;;14.40;99.90;;;;;;5076629;28;20101;-70
2023/08/10 02:36:15;;;;;;;5.60;2.23;;;14.40;99.90;;;;;;5076877;28;20614;-71
2023/08/10 02:38:40;;;;;;;8.23;2.83;;;14.40;99.90;;;;;;5076740;28;20047;-71
2023/08/10 02:41:06;;;;;;;6.47;2.43;;;14.40;99.90;;;;;;5076959;28;20072;-71
2023/08/10 02:43:32;;;;;;;6.27;2.50;;;14.40;99.90;;;;;;5076726;28;20059;-70
2023/08/10 02:45:57;;;;;;;5.83;2.73;;;14.50;99.90;;;;;;5076501;28;20133;-70
2023/08/10 02:48:24;;;;;;;9.30;3.30;;;14.50;99.90;;;;;;5076743;28;20052;-70
2023/08/10 02:50:50;;;;;;;7.77;2.60;;;14.50;99.90;;;;;;5075180;28;20048;-70
2023/08/10 02:53:15;;;;;;;5.83;2.90;;;14.50;99.90;;;;;;5076519;28;20619;-70
2023/08/10 02:55:41;;;;;;;7.37;2.53;;;14.50;99.90;;;;;;5076316;28;20050;-70
2023/08/10 02:58:07;;;;;;;6.73;2.63;;;14.50;99.90;;;;;;5076399;28;20105;-70
2023/08/10 03:00:32;;;;;;;6.17;2.90;;;14.50;99.90;;;;;;5076396;28;20039;-70
2023/08/10 03:03:00;;;;;;;5.33;2.83;;;14.50;99.90;;;;;;5076102;28;20045;-71
2023/08/10 03:05:25;;;;;;;6.20;3.07;;;14.60;99.90;;;;;;5075388;28;20041;-70
2023/08/10 03:07:51;;;;;;;8.77;3.13;;;14.60;99.90;;;;;;5076047;28;20279;-71
2023/08/10 03:10:17;;;;;;;6.53;2.57;;;14.60;99.90;;;;;;5076154;28;20119;-71
2023/08/10 03:12:42;;;;;;;9.77;2.80;;;14.70;99.90;;;;;;5075902;28;20457;-70
2023/08/10 03:15:09;;;;;;;9.30;3.17;;;14.60;99.90;;;;;;5076197;28;20037;-71
2023/08/10 03:17:35;;;;;;;6.00;2.83;;;14.60;99.90;;;;;;5075109;28;20413;-70
2023/08/10 03:20:06;;;;;;;8.47;3.13;;;14.60;99.90;;;;;;5058015;28;20726;-70
2023/08/10 03:22:32;;;;;;;6.20;2.73;;;14.60;99.90;;;;;;5074797;28;20277;-71
2023/08/10 03:24:58;;;;;;;9.87;2.90;;;14.60;99.90;;;;;;5075702;28;20279;-71
2023/08/10 03:27:23;;;;;;;6.93;2.90;;;14.60;99.90;;;;;;5075684;28;20048;-70
2023/08/10 03:29:49;;;;;;;6.93;2.80;;;14.60;99.90;;;;;;5075609;28;20362;-71
2023/08/10 03:32:15;;;;;;;4.77;3.00;;;14.60;99.90;;;;;;5058006;28;20491;-70
2023/08/10 03:34:40;;;;;;;6.97;3.27;;;14.60;99.90;;;;;;5075876;28;20047;-70
2023/08/10 03:37:06;;;;;;;9.57;2.77;;;14.70;99.90;;;;;;5075356;28;20063;-70
2023/08/10 03:39:32;;;;;;;6.83;3.03;;;14.70;99.90;;;;;;5075739;28;20039;-70
2023/08/10 03:41:57;;;;;;;7.30;2.80;;;14.70;99.90;;;;;;5075444;28;20049;-71
2023/08/10 03:44:23;;;;;;;6.47;2.50;;;14.70;99.90;;;;;;5074644;28;20044;-70
2023/08/10 03:46:48;;;;;;;5.40;2.93;;;14.70;99.90;;;;;;5075381;28;20044;-70
2023/08/10 03:49:14;;;;;;;8.53;2.77;;;14.70;99.90;;;;;;5075474;28;20043;-71
2023/08/10 03:51:40;;;;;;;5.83;2.83;;;14.70;99.90;;;;;;5075421;28;20402;-70
2023/08/10 03:54:06;;;;;;;7.60;2.70;;;14.70;99.90;;;;;;5074328;28;20483;-70
2023/08/10 03:56:31;;;;;;;9.10;2.73;;;14.70;99.90;;;;;;5075375;28;20496;-70
2023/08/10 03:58:57;;;;;;;6.97;2.87;;;14.70;99.90;;;;;;5075091;28;20048;-70
2023/08/10 04:01:23;;;;;;;9.67;2.23;;;14.70;99.90;;;;;;5075725;28;20439;-70
2023/08/10 04:03:48;;;;;;;6.47;2.90;;;14.70;99.90;;;;;;5075087;28;20040;-71
2023/08/10 04:06:14;;;;;;;10.27;2.90;;;14.80;99.90;;;;;;5075228;28;20040;-70
2023/08/10 04:08:40;;;;;;;6.23;2.70;;;14.80;99.90;;;;;;5040852;28;20040;-70
2023/08/10 04:11:05;;;;;;;9.67;3.10;;;14.80;99.90;;;;;;5074873;28;20036;-70
2023/08/10 04:13:31;;;;;;;8.80;2.70;;;14.80;99.90;;;;;;5075168;28;20381;-70
2023/08/10 04:15:57;;;;;;;7.20;2.40;;;14.80;99.90;;;;;;5074318;28;20052;-71
2023/08/10 04:18:23;;;;;;;6.73;2.73;;;14.80;99.90;;;;;;5074982;28;20047;-71
2023/08/10 04:20:49;;;;;;;4.93;2.33;;;14.80;99.90;;;;;;5075039;28;20107;-71
2023/08/10 04:23:15;;;;;;;6.50;2.47;;;14.80;99.90;;;;;;5075035;28;20473;-71
2023/08/10 04:25:41;;;;;;;7.47;2.57;;;14.80;99.90;;;;;;5074815;28;20275;-71
2023/08/10 04:28:07;;;;;;;6.57;2.27;;;14.80;99.90;;;;;;5074425;28;20056;-71
2023/08/10 04:30:32;;;;;;;7.43;2.80;;;14.80;99.90;;;;;;5074913;28;20048;-70
2023/08/10 04:32:58;;;;;;;7.83;2.47;;;14.90;99.90;;;;;;5074431;28;20036;-70
2023/08/10 04:35:24;;;;;;;8.53;2.50;;;14.90;99.90;;;;;;5074628;28;20127;-70
2023/08/10 04:37:53;;;;;;;8.37;2.50;;;14.90;99.90;;;;;;5074221;28;20041;-70
2023/08/10 04:40:19;;;;;;;7.23;2.67;;;14.90;99.90;;;;;;5074819;28;20072;-70
2023/08/10 04:42:45;;;;;;;5.30;2.20;;;14.90;99.90;;;;;;5074650;28;20051;-70
2023/08/10 04:45:10;;;;;;;8.03;2.40;;;14.90;99.90;;;;;;5074262;28;20279;-71
2023/08/10 04:47:37;;;;;;;4.90;2.30;;;14.90;99.90;;;;;;5073980;28;20485;-70
2023/08/10 04:50:03;;;;;;;6.23;2.40;;;15.00;99.90;;;;;;5074053;28;20045;-71
2023/08/10 04:52:29;;;;;;;7.73;2.47;;;15.00;99.90;;;;;;5074532;28;20306;-70
2023/08/10 04:54:55;;;;;;;7.10;2.37;;;15.00;99.90;;;;;;5074013;28;20718;-71
2023/08/10 04:57:20;;;;;;;8.60;2.50;;;15.00;99.90;;;;;;5073167;28;20050;-71
2023/08/10 04:59:46;;;;;;;6.47;2.50;;;15.10;99.90;;;;;;5074123;28;20036;-70
2023/08/10 05:02:13;;;;;;;4.07;2.33;;;15.10;99.90;;;;;;5072530;28;20066;-70
2023/08/10 05:04:38;;;;;;;7.90;3.07;;;15.10;99.90;;;;;;5072805;28;20036;-71
2023/08/10 05:07:05;;;;;;;7.50;2.50;;;15.10;99.90;;;;;;5074097;28;20285;-70
2023/08/10 05:09:30;;;;;;;7.80;3.30;;;15.10;99.90;;;;;;5074036;28;20076;-71
2023/08/10 05:11:56;;;;;;;5.37;2.43;;;15.20;99.90;;;;;;5072447;28;20314;-71
2023/08/10 05:14:22;;;;;;;5.70;2.57;;;15.20;99.90;;;;;;5073718;28;20119;-71
2023/08/10 05:16:47;;;;;;;8.47;3.03;;;15.20;99.90;;;;;;5073753;28;20051;-71
2023/08/10 05:19:13;;;;;;;7.63;2.83;;;15.20;99.90;;;;;;5073587;28;20074;-71
2023/08/10 05:21:39;;;;;;;10.03;2.70;;;15.30;99.90;;;;;;5089728;28;20044;-70
2023/08/10 05:24:06;;;;;;;7.20;2.70;;;15.30;99.90;;;;;;5072256;28;20037;-71
2023/08/10 05:26:32;;;;;;;9.07;2.63;;;15.40;99.90;;;;;;5072145;28;20110;-71
2023/08/10 05:28:58;;;;;;;7.17;3.10;;;15.50;99.90;;;;;;5073519;28;20061;-71
2023/08/10 05:31:24;;;;;;;6.40;2.90;;;15.50;99.90;;;;;;5072602;28;20117;-70
2023/08/10 05:33:49;;;;;;;6.30;2.60;;;15.60;99.90;;;;;;5073729;28;20048;-70
2023/08/10 05:36:16;;;;;;;5.77;2.43;;;15.60;99.90;;;;;;5072288;28;20048;-70
2023/08/10 05:38:41;;;;;;;6.27;2.80;;;15.60;99.90;;;;;;5072531;28;20177;-70
2023/08/10 05:41:07;;;;;;;7.90;3.20;;;15.70;99.90;;;;;;5072997;28;20120;-70
2023/08/10 05:43:33;;;;;;;8.50;2.53;;;15.70;99.90;;;;;;5073700;28;20129;-70
2023/08/10 05:45:59;;;;;;;6.83;2.57;;;15.80;99.90;;;;;;5073296;28;20468;-71
2023/08/10 05:48:25;;;;;;;8.30;2.93;;;15.80;99.90;;;;;;5073050;28;20044;-70
2023/08/10 05:50:51;;;;;;;6.10;2.40;;;15.90;99.90;;;;;;5073289;28;20033;-70
2023/08/10 05:53:16;;;;;;;6.47;2.70;;;16.00;99.90;;;;;;5071854;28;20044;-70
2023/08/10 05:55:42;;;;;;;4.63;2.30;;;16.00;99.90;;;;;;5073298;28;20040;-70
2023/08/10 05:58:08;;;;;;;7.27;2.20;;;16.10;99.90;;;;;;5073030;28;20109;-70
2023/08/10 06:00:36;;;;;;;9.47;2.87;;;16.20;99.90;;;;;;5072236;28;20459;-70
2023/08/10 06:03:03;;;;;;;5.67;2.30;;;16.20;99.90;;;;;;5073000;28;20052;-71
2023/08/10 06:05:31;;;;;;;7.03;2.93;;;16.30;99.90;;;;;;5073124;28;20076;-71
2023/08/10 06:07:57;;;;;;;6.17;2.80;;;16.40;99.90;;;;;;5073039;28;20051;-71
2023/08/10 06:10:24;;;;;;;8.93;2.73;;;16.50;99.90;;;;;;5072837;28;20117;-71
2023/08/10 06:12:50;;;;;;;6.37;2.53;;;16.70;99.90;;;;;;5073105;28;20066;-71
2023/08/10 06:15:16;;;;;;;5.47;2.30;;;17.00;99.90;;;;;;5072895;28;20055;-71
2023/08/10 06:17:42;;;;;;;6.80;2.93;;;17.30;99.90;;;;;;5073127;28;20453;-71
2023/08/10 06:20:09;;;;;;;7.63;2.63;;;18.10;99.90;;;;;;5072750;28;20036;-71
2023/08/10 06:22:40;;;;;;;7.67;2.83;;;18.70;99.90;;;;;;5072988;28;20464;-71
2023/08/10 06:25:07;;;;;;;6.40;2.23;;;19.00;99.90;;;;;;5072787;28;20047;-71
2023/08/10 06:27:34;;;;;;;6.63;2.30;;;19.10;99.90;;;;;;5072671;28;20044;-71
2023/08/10 06:30:01;;;;;;;4.93;2.00;;;19.10;99.90;;;;;;5072888;28;20076;-71
2023/08/10 06:32:26;;;;;;;6.00;2.50;;;19.10;99.90;;;;;;5072751;28;20040;-71
2023/08/10 06:34:54;;;;;;;4.77;2.20;;;19.00;99.90;;;;;;5071686;28;20097;-71
2023/08/10 06:37:20;;;;;;;8.47;2.60;;;19.00;99.90;;;;;;5072658;28;20123;-71
2023/08/10 06:39:48;;;;;;;7.70;2.30;;;19.10;99.90;;;;;;5072987;28;20170;-71
2023/08/10 06:42:16;;;;;;;5.73;2.20;;;19.20;99.90;;;;;;5072598;28;20141;-71
2023/08/10 06:44:43;;;;;;;6.67;2.27;;;19.10;99.90;;;;;;5072795;28;20056;-71
2023/08/10 06:47:08;;;;;;;6.03;2.30;;;19.00;99.90;;;;;;5072608;28;20062;-71
2023/08/10 06:49:34;;;;;;;5.20;1.80;;;18.90;99.90;;;;;;5072686;28;20032;-71
2023/08/10 06:52:00;;;;;;;6.30;1.80;;;18.70;99.90;;;;;;5072694;28;20036;-71
2023/08/10 06:54:27;;;;;;;7.57;2.37;;;18.60;99.90;;;;;;5072515;28;20043;-71
2023/08/10 06:56:53;;;;;;;4.93;2.40;;;18.50;99.90;;;;;;5072685;28;20048;-71
2023/08/10 06:59:19;;;;;;;7.60;2.50;;;18.40;99.90;;;;;;5072340;28;20473;-71
2023/08/10 07:01:44;;;;;;;7.03;1.97;;;18.30;99.90;;;;;;5072603;28;20040;-71
2023/08/10 07:04:10;;;;;;;6.97;2.57;;;18.30;99.90;;;;;;5072464;28;20044;-71
2023/08/10 07:06:36;;;;;;;5.03;1.80;;;18.30;99.90;;;;;;5072917;28;20044;-71
2023/08/10 07:09:03;;;;;;;6.73;2.10;;;18.20;99.90;;;;;;5074449;28;20568;-71
2023/08/10 07:11:29;;;;;;;7.07;2.07;;;18.20;99.90;;;;;;5093827;28;20048;-71
2023/08/10 07:13:55;;;;;;;5.80;2.03;;;18.20;99.90;;;;;;5095456;28;20171;-69
2023/08/10 07:16:21;;;;;;;7.10;2.37;;;18.30;99.90;;;;;;5096249;28;20501;-69
2023/08/10 07:18:46;;;;;;;4.73;1.80;;;18.40;99.90;;;;;;5095139;28;20048;-69
2023/08/10 07:21:12;;;;;;;5.50;1.90;;;18.50;99.90;;;;;;5095193;28;20128;-68
2023/08/10 07:23:38;;;;;;;5.67;1.60;;;18.70;99.90;;;;;;5096291;28;20040;-68
2023/08/10 07:26:04;;;;;;;5.77;2.03;;;18.90;99.90;;;;;;5096273;28;20039;-69
2023/08/10 07:28:30;;;;;;;6.97;1.70;;;18.90;99.90;;;;;;5085960;28;20126;-68
2023/08/10 07:30:55;;;;;;;6.03;1.90;;;18.90;99.90;;;;;;5086728;28;20051;-71
2023/08/10 07:33:21;;;;;;;6.77;1.80;;;18.90;99.90;;;;;;5095955;28;20044;-71
2023/08/10 07:35:47;;;;;;;5.80;1.90;;;19.00;99.90;;;;;;5096288;28;20463;-71
2023/08/10 07:38:13;;;;;;;4.23;1.70;;;19.10;99.90;;;;;;5094858;28;20051;-72
2023/08/10 07:40:39;;;;;;;8.00;2.00;;;19.10;99.90;;;;;;5095011;28;20048;-71
2023/08/10 07:43:05;;;;;;;7.23;1.70;;;19.10;99.90;;;;;;5094795;28;20044;-71
2023/08/10 07:45:31;;;;;;;6.60;1.80;;;19.10;99.90;;;;;;5095675;28;20047;-71
2023/08/10 07:47:57;;;;;;;6.83;1.40;;;19.10;99.90;;;;;;5095819;28;20085;-71
2023/08/10 07:50:22;;;;;;;6.23;2.67;;;19.10;99.90;;;;;;5095467;28;20129;-71
2023/08/10 07:52:48;;;;;;;4.00;1.63;;;19.20;99.90;;;;;;5095811;28;20036;-71
2023/08/10 07:55:15;;;;;;;5.37;1.60;;;19.30;99.90;;;;;;5095677;28;20504;-72
2023/08/10 07:57:41;;;;;;;4.47;1.30;;;19.30;99.90;;;;;;5095701;28;20083;-71
2023/08/10 08:00:10;;;;;;;5.13;1.60;;;19.30;99.90;;;;;;5095607;28;20036;-71
2023/08/10 08:02:36;;;;;;;4.53;1.63;;;19.30;99.90;;;;;;5094117;28;20040;-71
2023/08/10 08:05:03;;;;;;;4.17;1.73;;;19.30;99.90;;;;;;5095523;28;20044;-71
2023/08/10 08:07:31;;;;;;;7.23;2.13;;;19.30;99.90;;;;;;5094076;28;20133;-71
2023/08/10 08:10:01;;;;;;;4.47;1.43;;;19.20;99.90;;;;;;5094995;28;20519;-71
2023/08/10 08:12:27;;;;;;;5.83;1.60;;;19.20;99.90;;;;;;5095186;28;20055;-71
2023/08/10 08:14:54;;;;;;;5.33;1.23;;;19.20;99.90;;;;;;5095342;28;20044;-71
2023/08/10 08:17:21;;;;;;;4.53;1.17;;;19.20;99.90;;;;;;5095173;28;20039;-71
2023/08/10 08:19:47;;;;;;;7.27;1.70;;;19.20;99.90;;;;;;5095221;28;20039;-71
2023/08/10 08:22:13;;;;;;;3.87;1.57;;;19.20;99.90;;;;;;5094688;28;20040;-71
2023/08/10 08:24:40;;;;;;;5.93;1.90;;;19.20;99.90;;;;;;5094347;28;20059;-71
2023/08/10 08:27:05;;;;;;;4.70;2.13;;;19.10;99.90;;;;;;5095046;28;20082;-71
2023/08/10 08:29:31;;;;;;;6.30;1.80;;;19.00;99.90;;;;;;5094380;28;20079;-71
2023/08/10 08:31:57;;;;;;;6.97;2.17;;;18.90;99.90;;;;;;5095270;28;20199;-71
2023/08/10 08:34:23;;;;;;;5.53;1.73;;;18.90;99.90;;;;;;5094748;28;20044;-71
2023/08/10 08:36:49;;;;;;;6.10;2.20;;;18.90;99.90;;;;;;5093851;28;20040;-71
2023/08/10 08:39:15;;;;;;;7.67;2.10;;;18.80;99.90;;;;;;5093577;28;20036;-71
2023/08/10 08:41:41;;;;;;;6.03;1.93;;;18.80;99.90;;;;;;5094514;28;20047;-71
2023/08/10 08:44:09;;;;;;;6.50;1.83;;;18.80;99.90;;;;;;5093525;28;20051;-71
2023/08/10 08:46:39;;;;;;;7.90;1.87;;;18.80;99.90;;;;;;5094513;28;20040;-71
2023/08/10 08:49:05;;;;;;;5.87;1.40;;;18.70;99.90;;;;;;5094796;28;20119;-71
2023/08/10 08:51:31;;;;;;;5.27;2.33;;;18.70;99.90;;;;;;5094319;28;20047;-71
2023/08/10 08:54:02;;;;;;;6.27;1.70;;;18.70;99.90;;;;;;5093588;28;20044;-71
2023/08/10 08:56:28;;;;;;;6.27;1.50;;;18.70;99.90;;;;;;5094259;28;20075;-71
2023/08/10 08:58:54;;;;;;;6.60;1.80;;;18.70;99.90;;;;;;5094635;28;20426;-71
2023/08/10 09:01:20;;;;;;;6.17;1.77;;;18.70;99.90;;;;;;5094394;28;20047;-71
2023/08/10 09:03:48;;;;;;;7.73;1.70;;;18.70;99.90;;;;;;5094003;28;20043;-71
2023/08/10 09:06:13;;;;;;;3.40;1.30;;;18.70;99.90;;;;;;5094295;28;20043;-71
2023/08/10 09:08:41;;;;;;;6.50;1.83;;;18.70;99.90;;;;;;5093989;28;20054;-71
2023/08/10 09:11:07;;;;;;;6.60;1.83;;;18.80;99.90;;;;;;5094096;28;20032;-71
2023/08/10 09:13:33;;;;;;;5.40;1.70;;;18.80;99.90;;;;;;5093979;28;20040;-71
2023/08/10 09:16:13;;;;;;;6.33;1.70;;;18.90;99.90;;;;;;5093173;28;20071;-71
2023/08/10 09:18:42;;;;;;;5.33;1.53;;;18.90;99.90;;;;;;5094017;28;20047;-71
2023/08/10 09:21:19;;;;;;;4.70;1.80;;;18.90;99.90;;;;;;5094103;28;20036;-71
2023/08/10 09:23:52;;;;;;;6.33;1.80;;;18.90;99.90;;;;;;5093750;28;20040;-71
2023/08/10 09:26:20;;;;;;;5.17;1.70;;;18.90;99.90;;;;;;5094179;28;20044;-71
2023/08/10 09:28:50;;;;;;;5.53;1.97;;;18.90;99.90;;;;;;5091885;28;20116;-71
2023/08/10 09:31:23;;;;;;;6.63;2.13;;;18.90;99.90;;;;;;5093734;28;20040;-71
2023/08/10 09:33:54;;;;;;;8.33;1.77;;;18.90;99.90;;;;;;5093477;28;20127;-71
2023/08/10 09:36:24;;;;;;;7.97;2.37;;;18.90;99.90;;;;;;5093818;28;20055;-71
2023/08/10 09:38:51;;;;;;;8.50;1.90;;;18.90;99.90;;;;;;5093645;28;20066;-71
2023/08/10 09:41:20;;;;;;;4.60;1.63;;;19.00;99.90;;;;;;5092495;28;20040;-71
2023/08/10 09:43:46;;;;;;;4.50;1.77;;;19.00;99.90;;;;;;5092260;28;20056;-71
2023/08/10 09:46:14;;;;;;;5.67;1.70;;;19.10;99.90;;;;;;5093287;28;20048;-71
2023/08/10 09:48:44;;;;;;;4.43;1.80;;;19.10;99.90;;;;;;5092676;28;20521;-71
2023/08/10 09:51:11;;;;;;;4.27;1.70;;;19.10;99.90;;;;;;5093493;28;20528;-71
2023/08/10 09:53:37;;;;;;;8.33;1.73;;;19.20;99.90;;;;;;5092382;28;20133;-71
2023/08/10 09:56:07;;;;;;;8.33;2.27;;;19.30;99.90;;;;;;5093682;28;20460;-71
2023/08/10 09:58:42;;;;;;;5.00;1.80;;;19.40;99.90;;;;;;5093353;28;20036;-71
2023/08/10 10:01:10;;;;;;;8.20;1.90;;;19.50;99.90;;;;;;5093404;28;20044;-71
2023/08/10 10:03:36;;;;;;;5.93;1.70;;;19.50;99.90;;;;;;5091948;28;20040;-72
2023/08/10 10:06:01;;;;;;;7.37;1.70;;;19.50;99.90;;;;;;5093504;28;20044;-71
2023/08/10 10:08:29;;;;;;;5.33;1.83;;;19.50;99.90;;;;;;5093282;28;20373;-71
2023/08/10 10:10:59;;;;;;;6.70;1.93;;;19.60;99.90;;;;;;5093198;28;20043;-71
2023/08/10 10:13:25;;;;;;;3.93;1.50;;;19.70;99.90;;;;;;5093543;28;20043;-71
2023/08/10 10:15:54;;;;;;;4.90;1.80;;;19.80;99.90;;;;;;5092777;28;20499;-71
2023/08/10 10:18:20;;;;;;;3.20;1.50;;;20.00;99.90;;;;;;5093169;28;20047;-71
2023/08/10 10:20:46;;;;;;;5.63;1.90;;;20.10;99.90;;;;;;5093030;28;20076;-71
2023/08/10 10:23:20;;;;;;;6.17;2.23;;;20.20;99.90;;;;;;5093234;28;20040;-71
2023/08/10 10:26:01;;;;;;;5.82;1.88;;;20.30;99.90;;;;;;5092920;28;20046;-71
2023/08/10 10:28:29;;;;;;;4.97;2.10;;;20.40;99.90;;;;;;5091787;28;20388;-71
2023/08/10 10:31:16;;;;;;;7.53;1.90;;;20.40;99.90;;;;;;5092807;28;20051;-71
2023/08/10 10:33:55;;;;;;;7.03;2.27;;;20.40;99.90;;;;;;5091751;28;20098;-71
2023/08/10 10:36:21;;;;;;;5.47;1.77;;;20.50;99.90;;;;;;5092992;28;20047;-71
2023/08/10 10:38:49;;;;;;;7.60;2.20;;;20.60;99.90;;;;;;5092522;28;20039;-71
2023/08/10 10:41:27;;;;;;;6.20;2.40;;;20.70;99.90;;;;;;5092959;28;20042;-71
2023/08/10 10:43:52;;;;;;;4.93;1.93;;;20.80;99.90;;;;;;5091824;28;20464;-71
2023/08/10 10:46:33;;;;;;;5.50;2.47;;;21.00;99.90;;;;;;5093647;28;20048;-71
2023/08/10 10:49:00;;;;;;;6.20;2.40;;;21.10;99.90;;;;;;5096436;28;20042;-71
2023/08/10 10:51:28;;;;;;;4.70;2.13;;;21.20;99.90;;;;;;5096178;28;20047;-71
2023/08/10 10:53:54;;;;;;;6.10;2.70;;;21.30;99.90;;;;;;5094675;28;20044;-71
2023/08/10 10:56:20;;;;;;;6.23;2.27;;;21.30;99.90;;;;;;5096503;28;20079;-71
2023/08/10 10:58:49;;;;;;;10.17;2.50;;;21.30;99.90;;;;;;5096191;28;20222;-72
2023/08/10 11:01:21;;;;;;;7.30;2.43;;;21.30;99.90;;;;;;5096644;28;20036;-71
2023/08/10 11:03:54;;;;;;;7.50;2.70;;;21.30;99.90;;;;;;5096574;28;20047;-71
2023/08/10 11:06:21;;;;;;;7.53;2.43;;;21.30;99.90;;;;;;5096648;28;20130;-71
2023/08/10 11:08:51;;;;;;;8.03;2.40;;;21.40;99.90;;;;;;5095508;28;20379;-71
2023/08/10 11:11:18;;;;;;;7.70;2.57;;;21.50;99.90;;;;;;5095653;28;20126;-71
2023/08/10 11:13:44;;;;;;;7.60;2.50;;;21.50;99.90;;;;;;5096283;28;20432;-72
2023/08/10 11:16:10;;;;;;;7.37;3.17;;;21.50;99.90;;;;;;5096507;28;20406;-71
2023/08/10 11:18:39;;;;;;;7.43;2.67;;;21.40;99.90;;;;;;5096111;28;20498;-71
2023/08/10 11:21:09;;;;;;;7.73;2.50;;;21.40;99.90;;;;;;5096293;28;20039;-71
2023/08/10 11:23:35;;;;;;;10.20;2.83;;;21.50;99.90;;;;;;5096401;28;20032;-71
2023/08/10 11:26:04;;;;;;;6.27;2.90;;;21.50;99.90;;;;;;5096082;28;20123;-72
2023/08/10 11:28:30;;;;;;;6.87;2.70;;;21.60;99.90;;;;;;5096204;28;20054;-72
2023/08/10 11:31:06;;;;;;;6.53;2.90;;;21.70;99.90;;;;;;5095920;28;20126;-71
2023/08/10 11:33:32;;;;;;;6.63;2.77;;;21.90;99.90;;;;;;5096133;28;20040;-71
2023/08/10 11:35:58;;;;;;;6.83;2.93;;;21.80;99.90;;;;;;5095790;28;20101;-72
2023/08/10 11:38:25;;;;;;;5.33;2.50;;;21.80;99.90;;;;;;5096018;28;20058;-71
2023/08/10 11:40:54;;;;;;;8.07;3.00;;;21.80;99.90;;;;;;5095860;28;20035;-71
2023/08/10 11:43:22;;;;;;;7.67;3.17;;;21.70;99.90;;;;;;5095930;28;20086;-71
2023/08/10 11:45:48;;;;;;;8.37;2.90;;;21.60;99.90;;;;;;5095634;28;20048;-72
2023/08/10 11:48:19;;;;;;;9.43;3.57;;;21.50;99.90;;;;;;5095845;28;20349;-71
2023/08/10 11:50:45;;;;;;;9.80;3.80;;;21.50;99.90;;;;;;5095653;28;20062;-72
2023/08/10 11:53:12;;;;;;;7.57;3.60;;;21.50;99.90;;;;;;5094481;28;20036;-71
2023/08/10 11:55:45;;;;;;;6.97;3.60;;;21.40;99.90;;;;;;5095602;28;20054;-71
2023/08/10 11:58:13;;;;;;;10.60;3.90;;;21.40;99.90;;;;;;5095658;28;20061;-71
2023/08/10 12:00:41;;;;;;;7.77;3.67;;;21.30;99.90;;;;;;5095600;28;20036;-72
2023/08/10 12:03:16;;;;;;;7.77;3.17;;;21.20;99.90;;;;;;5095495;28;20044;-71
2023/08/10 12:05:52;;;;;;;;;;;21.10;99.90;;;;;;5094969;28;20044;-71
2023/08/10 12:08:28;;;;;;;8.63;3.53;;;21.10;99.90;;;;;;5095445;28;19931;-71
2023/08/10 12:11:06;;;;;;;6.30;2.90;;;21.10;99.90;;;;;;5093980;28;20036;-72
2023/08/10 12:13:43;;;;;;;6.73;3.43;;;21.00;99.90;;;;;;5095462;28;20043;-71
2023/08/10 12:16:08;;;;;;;7.03;3.03;;;21.00;99.90;;;;;;5095369;28;20036;-71
2023/08/10 12:18:34;;;;;;;6.47;3.17;;;20.90;99.90;;;;;;5095281;28;20062;-71
2023/08/10 12:21:00;;;;;;;7.20;2.70;;;20.80;99.90;;;;;;5095095;28;20044;-71
2023/08/10 12:23:26;;;;;;;5.70;2.70;;;20.80;99.90;;;;;;5095127;28;20036;-71
2023/08/10 12:25:51;;;;;;;7.03;3.40;;;20.90;99.90;;;;;;5094953;28;20040;-71
2023/08/10 12:28:18;;;;;;;6.90;3.10;;;20.80;99.90;;;;;;5093596;28;20487;-71
2023/08/10 12:30:44;;;;;;;7.90;3.47;;;20.90;99.90;;;;;;5094954;28;20036;-71
2023/08/10 12:33:11;;;;;;;5.43;3.07;;;20.90;99.90;;;;;;5094954;28;20048;-71
2023/08/10 12:35:38;;;;;;;6.00;3.07;;;21.00;99.90;;;;;;5094891;28;20122;-71
2023/08/10 12:38:05;;;;;;;6.50;3.10;;;21.00;99.90;;;;;;5093399;28;20082;-71
2023/08/10 12:40:32;;;;;;;5.63;3.27;;;21.00;99.90;;;;;;5094844;28;20039;-71
2023/08/10 12:43:01;;;;;;;8.83;3.50;;;21.00;99.90;;;;;;5094655;28;20070;-71
2023/08/10 12:45:26;;;;;;;6.70;2.90;;;21.00;99.90;;;;;;5094478;28;20488;-71
2023/08/10 12:47:54;;;;;;;7.07;3.17;;;21.10;99.90;;;;;;5094473;28;20082;-71